Westville, Connecticut
Current Conditions -  °F | °C
As of 10:53 AM on Wednesday 22 Oct 2014 (Local Time) from KHVN Reporting Station
Overcast Overcast  
Wind Chill: 58°   Ceiling: 1600
Heat Index: 58°   Visibility: 10mi
Dew Point: 51°   Wind: 18mph
Humidity: 78%   Direction: 20°NNE
Pressure: 29.93"   Gusts: 25mph
Location:  41.3258°N, 72.9705°W
Report Text: KHVN 221453Z 02016G22KT 10SM BKN016 BKN025 OVC100 14/11 A2993 RMK AO2 SLP134 T01440106 55007
Loading
Personal Weather Stations






























Interactive Weather Map
Tropical Storm Tracking
New forecast layout! Learn more

10-Day Weather Forecast

Advertisements
Track Severe Weather on mobile